Metar z pełnej godziny Komunikat METAR ze strony awiacja.imgw.pl Metar G00 EPKT METAR EPKT 212300Z 10005KT CAVOK 17/12 Q1009 =